Time;durP1;ratioP1;P1;durP2;ratioP2;P2;SDS_P1;SDS_P2;PMS_P1;PMS_P2;Temp;Humidity;BMP_temperature;BMP_pressure;BME280_temperature;BME280_humidity;BME280_pressure;Samples;Min_cycle;Max_cycle;Signal;HPM_P1;HPM_P2
2022/11/12 00:01:07;;;;;;;5.53;4.90;;;6.50;99.90;;;;;;5087773;28;20208;-79
2022/11/12 00:03:36;;;;;;;3.88;3.50;;;6.50;99.90;;;;;;5087491;28;20644;-79
2022/11/12 00:06:02;;;;;;;3.75;3.45;;;6.60;99.90;;;;;;5087721;28;20208;-80
2022/11/12 00:08:29;;;;;;;4.07;3.73;;;6.50;99.90;;;;;;5086075;28;20208;-80
2022/11/12 00:10:56;;;;;;;3.83;3.45;;;6.50;99.90;;;;;;5087788;28;20656;-80
2022/11/12 00:13:23;;;;;;;4.32;3.88;;;6.50;99.90;;;;;;5087275;28;20195;-80
2022/11/12 00:15:49;;;;;;;4.13;3.63;;;6.50;99.90;;;;;;5088995;28;20199;-80
2022/11/12 00:18:16;;;;;;;4.80;3.47;;;6.40;99.90;;;;;;5110793;28;20200;-80
2022/11/12 00:20:45;;;;;;;3.33;3.05;;;6.40;99.90;;;;;;5112003;28;20199;-80
2022/11/12 00:23:11;;;;;;;4.35;3.92;;;6.50;99.90;;;;;;5111775;28;20236;-80
2022/11/12 00:25:38;;;;;;;4.05;3.42;;;6.40;99.90;;;;;;5111519;28;20205;-80
2022/11/12 00:28:07;;;;;;;4.35;3.53;;;6.40;99.90;;;;;;5110617;28;20182;-80
2022/11/12 00:30:35;;;;;;;5.68;2.80;;;6.40;99.90;;;;;;5111759;28;20285;-80
2022/11/12 00:33:02;;;;;;;3.72;3.42;;;6.30;99.90;;;;;;5111850;28;20198;-80
2022/11/12 00:35:30;;;;;;;5.10;3.22;;;6.40;99.90;;;;;;5111614;28;20190;-80
2022/11/12 00:37:59;;;;;;;9.73;3.83;;;6.50;99.90;;;;;;5110759;28;20285;-80
2022/11/12 00:40:26;;;;;;;4.05;2.75;;;6.50;99.90;;;;;;5111105;28;20221;-81
2022/11/12 00:42:54;;;;;;;4.82;3.30;;;6.50;99.90;;;;;;5111710;28;20708;-80
2022/11/12 00:45:21;;;;;;;4.55;3.40;;;6.50;99.90;;;;;;5111548;28;20201;-80
2022/11/12 00:47:48;;;;;;;5.38;2.28;;;6.50;99.90;;;;;;5110935;28;20198;-80
2022/11/12 00:50:15;;;;;;;3.30;2.90;;;6.40;99.90;;;;;;5111093;28;20735;-80
2022/11/12 00:52:43;;;;;;;4.90;3.60;;;6.50;99.90;;;;;;5111170;28;20679;-80
2022/11/12 00:55:11;;;;;;;3.42;2.38;;;6.40;99.90;;;;;;5110764;28;20206;-80
2022/11/12 00:57:38;;;;;;;4.80;3.15;;;6.40;99.90;;;;;;5110662;28;20664;-80
2022/11/12 01:00:06;;;;;;;4.10;3.35;;;6.30;99.90;;;;;;5097016;28;20198;-80
2022/11/12 01:02:33;;;;;;;2.70;2.50;;;6.20;99.90;;;;;;5090958;28;20596;-80
2022/11/12 01:05:00;;;;;;;2.93;2.73;;;6.20;99.90;;;;;;5091023;28;20195;-80
2022/11/12 01:07:28;;;;;;;5.32;3.30;;;6.10;99.90;;;;;;5089625;28;20639;-82
2022/11/12 01:09:54;;;;;;;4.43;2.95;;;6.10;99.90;;;;;;5089433;28;20271;-81
2022/11/12 01:12:22;;;;;;;3.75;3.20;;;6.10;99.90;;;;;;5090638;28;20211;-80
2022/11/12 01:14:49;;;;;;;4.57;2.97;;;6.00;99.90;;;;;;5090805;28;20198;-80
2022/11/12 01:17:16;;;;;;;2.72;2.50;;;6.00;99.90;;;;;;5100930;28;20208;-80
2022/11/12 01:19:43;;;;;;;4.03;2.38;;;6.00;99.90;;;;;;5111046;28;20247;-80
2022/11/12 01:22:11;;;;;;;3.00;2.58;;;6.10;99.90;;;;;;5110517;28;20224;-80
2022/11/12 01:24:38;;;;;;;3.20;2.97;;;6.10;99.90;;;;;;5110615;28;20232;-80
2022/11/12 01:27:04;;;;;;;2.85;2.60;;;6.20;99.90;;;;;;5109366;28;20198;-80
2022/11/12 01:29:33;;;;;;;4.35;2.47;;;6.20;99.90;;;;;;5110503;28;20206;-81
2022/11/12 01:31:59;;;;;;;2.00;1.85;;;6.20;99.90;;;;;;5110679;28;20203;-80
2022/11/12 01:34:26;;;;;;;4.35;2.67;;;6.20;99.90;;;;;;5110593;28;20665;-80
2022/11/12 01:36:54;;;;;;;5.60;3.33;;;6.10;99.90;;;;;;5109379;28;20296;-80
2022/11/12 01:39:20;;;;;;;2.55;2.10;;;6.00;99.90;;;;;;5111015;28;20202;-80
2022/11/12 01:41:47;;;;;;;3.33;2.95;;;5.90;99.90;;;;;;5110421;28;20210;-80
2022/11/12 01:44:17;;;;;;;4.78;3.28;;;5.80;99.90;;;;;;5110618;28;20583;-80
2022/11/12 01:46:58;;;;;;;2.92;2.05;;;5.80;99.90;;;;;;5109727;28;20255;-80
2022/11/12 01:49:30;;;;;;;2.25;1.60;;;5.80;99.90;;;;;;5110070;28;20205;-80
2022/11/12 01:52:10;;;;;;;4.40;2.35;;;5.80;99.90;;;;;;5110603;28;20198;-80
2022/11/12 01:54:38;;;;;;;3.42;2.92;;;5.80;99.90;;;;;;5110236;28;20289;-80
2022/11/12 01:57:05;;;;;;;3.75;3.38;;;5.80;99.90;;;;;;5109479;28;20198;-81
2022/11/12 01:59:37;;;;;;;1.90;1.80;;;5.70;99.90;;;;;;5100166;28;20198;-80
2022/11/12 02:02:06;;;;;;;3.15;2.08;;;5.70;99.90;;;;;;5089257;28;20208;-80
2022/11/12 02:04:34;;;;;;;3.28;1.80;;;5.70;99.90;;;;;;5089407;28;20209;-80
2022/11/12 02:07:03;;;;;;;4.32;2.13;;;5.70;99.90;;;;;;5087598;28;20207;-80
2022/11/12 02:09:31;;;;;;;3.03;2.33;;;5.70;99.90;;;;;;5088781;28;20222;-80
2022/11/12 02:11:59;;;;;;;4.85;2.50;;;5.70;99.90;;;;;;5089492;28;20195;-80
2022/11/12 02:14:25;;;;;;;6.22;2.22;;;5.60;99.90;;;;;;5089136;28;20195;-80
2022/11/12 02:16:53;;;;;;;3.08;2.42;;;5.50;99.90;;;;;;5096476;28;20198;-80
2022/11/12 02:19:21;;;;;;;2.95;2.60;;;5.50;99.90;;;;;;5109713;28;20285;-80
2022/11/12 02:21:49;;;;;;;2.38;2.17;;;5.50;99.90;;;;;;5109894;28;20567;-80
2022/11/12 02:24:35;;;;;;;2.05;1.45;;;5.60;99.90;;;;;;5108742;28;20452;-79
2022/11/12 02:27:04;;;;;;;1.30;1.15;;;5.40;99.90;;;;;;5109244;28;20205;-80
2022/11/12 02:29:31;;;;;;;3.55;2.45;;;5.60;99.90;;;;;;5109368;28;20289;-81
2022/11/12 02:31:58;;;;;;;2.03;1.80;;;5.60;99.90;;;;;;5109694;28;20239;-80
2022/11/12 02:34:25;;;;;;;2.30;2.10;;;5.70;99.90;;;;;;5109492;28;20206;-80
2022/11/12 02:36:54;;;;;;;2.40;2.20;;;5.70;99.90;;;;;;5108828;28;20194;-79
2022/11/12 02:39:21;;;;;;;3.72;2.42;;;5.60;99.90;;;;;;5108417;28;20726;-79
2022/11/12 02:41:48;;;;;;;1.73;1.63;;;5.60;99.90;;;;;;5109155;28;20194;-80
2022/11/12 02:44:15;;;;;;;2.15;1.63;;;5.50;99.90;;;;;;5108865;28;20230;-79
2022/11/12 02:46:43;;;;;;;3.47;3.17;;;5.50;99.90;;;;;;5108820;28;20194;-80
2022/11/12 02:49:09;;;;;;;2.33;2.22;;;5.40;99.90;;;;;;5109152;28;20190;-80
2022/11/12 02:51:37;;;;;;;1.83;1.67;;;5.50;99.90;;;;;;5108856;28;20194;-80
2022/11/12 02:54:05;;;;;;;3.38;1.90;;;5.40;99.90;;;;;;5108792;28;20194;-80
2022/11/12 02:56:32;;;;;;;2.00;1.73;;;5.30;99.90;;;;;;5108188;28;20232;-80
2022/11/12 02:58:59;;;;;;;2.75;1.73;;;5.20;99.90;;;;;;5104340;28;20281;-80
2022/11/12 03:01:26;;;;;;;5.47;3.47;;;5.10;99.90;;;;;;5088561;28;20282;-79
2022/11/12 03:03:53;;;;;;;3.83;1.67;;;5.10;99.90;;;;;;5088720;28;20228;-80
2022/11/12 03:06:20;;;;;;;3.28;1.80;;;4.90;99.90;;;;;;5087338;28;20224;-80
2022/11/12 03:08:47;;;;;;;2.20;2.00;;;4.80;99.90;;;;;;5087751;28;20221;-79
2022/11/12 03:11:16;;;;;;;3.45;2.75;;;4.70;99.90;;;;;;5088170;28;20191;-79
2022/11/12 03:13:44;;;;;;;1.35;1.13;;;4.80;99.90;;;;;;5088896;28;20649;-79
2022/11/12 03:16:11;;;;;;;4.28;1.75;;;4.80;99.90;;;;;;5089971;28;20225;-80
2022/11/12 03:18:38;;;;;;;1.42;1.25;;;4.90;99.90;;;;;;5107880;28;20205;-80
2022/11/12 03:21:06;;;;;;;3.53;3.22;;;5.00;99.90;;;;;;5108330;28;20262;-80
2022/11/12 03:23:33;;;;;;;5.55;1.35;;;5.00;99.90;;;;;;5108130;28;20313;-80
2022/11/12 03:26:03;;;;;;;4.05;3.65;;;4.90;99.90;;;;;;5107854;28;20728;-79
2022/11/12 03:28:31;;;;;;;2.97;2.08;;;4.80;99.90;;;;;;5107892;28;20202;-80
2022/11/12 03:31:00;;;;;;;1.52;1.30;;;5.00;99.90;;;;;;5108415;28;20198;-79
2022/11/12 03:33:27;;;;;;;1.95;1.75;;;5.00;99.90;;;;;;5108200;28;20194;-79
2022/11/12 03:35:55;;;;;;;1.50;1.40;;;5.10;99.90;;;;;;5108429;28;20639;-79
2022/11/12 03:38:22;;;;;;;1.70;1.60;;;5.10;99.90;;;;;;5107688;28;20566;-80
2022/11/12 03:40:50;;;;;;;2.17;2.05;;;5.10;99.90;;;;;;5108220;28;20198;-79
2022/11/12 03:43:16;;;;;;;1.10;1.00;;;5.20;99.90;;;;;;5108357;28;20229;-80
2022/11/12 03:45:45;;;;;;;2.55;1.60;;;5.10;99.90;;;;;;5108126;28;20201;-81
2022/11/12 03:48:12;;;;;;;2.33;1.90;;;5.20;99.90;;;;;;5107943;28;20210;-80
2022/11/12 03:50:40;;;;;;;2.30;1.95;;;5.30;99.90;;;;;;5107575;28;20664;-80
2022/11/12 03:53:07;;;;;;;1.63;1.45;;;5.20;99.90;;;;;;5108324;28;20200;-80
2022/11/12 03:55:34;;;;;;;1.02;0.75;;;5.10;99.90;;;;;;5108344;28;20221;-80
2022/11/12 03:58:01;;;;;;;2.47;1.77;;;5.20;99.90;;;;;;5107824;28;20194;-81
2022/11/12 04:00:29;;;;;;;3.10;1.60;;;5.10;99.90;;;;;;5090264;28;20202;-80
2022/11/12 04:02:57;;;;;;;1.75;1.30;;;5.00;99.90;;;;;;5087856;28;20231;-80
2022/11/12 04:10:58;;;;;;;1.70;1.15;;;4.90;99.90;;;;;;5086857;28;20306;-80
2022/11/12 04:13:26;;;;;;;1.35;1.15;;;4.90;99.90;;;;;;5087742;28;20689;-80
2022/11/12 04:24:04;;;;;;;2.90;1.40;;;5.00;99.90;;;;;;5087585;28;20237;-80
2022/11/12 04:26:30;;;;;;;3.25;1.92;;;5.10;99.90;;;;;;5086659;28;20418;-81
2022/11/12 04:31:41;;;;;;;1.13;1.02;;;5.10;99.90;;;;;;5107286;28;20256;-80
2022/11/12 04:36:54;;;;;;;3.60;2.42;;;5.10;99.90;;;;;;5107235;28;20235;-80
2022/11/12 04:39:20;;;;;;;2.10;1.90;;;5.00;99.90;;;;;;5107785;28;20582;-80
2022/11/12 04:47:16;;;;;;;1.67;1.55;;;4.90;99.90;;;;;;5106994;28;20191;-80
2022/11/12 04:49:44;;;;;;;5.25;2.20;;;4.80;99.90;;;;;;5107651;28;20208;-80
2022/11/12 04:52:11;;;;;;;1.90;1.60;;;4.80;99.90;;;;;;5107747;28;20200;-80
2022/11/12 04:54:38;;;;;;;2.45;2.17;;;4.80;99.90;;;;;;5107578;28;20206;-81
2022/11/12 04:57:05;;;;;;;1.60;1.50;;;4.90;99.90;;;;;;5106957;28;20216;-80
2022/11/12 04:59:31;;;;;;;3.58;2.83;;;4.90;99.90;;;;;;5097927;28;20732;-80
2022/11/12 05:01:58;;;;;;;2.80;1.50;;;4.90;99.90;;;;;;5087547;28;20222;-80
2022/11/12 05:04:26;;;;;;;2.05;1.17;;;4.90;99.90;;;;;;5090720;28;20237;-79
2022/11/12 05:06:55;;;;;;;3.88;2.65;;;4.90;99.90;;;;;;5090944;28;20205;-80
2022/11/12 05:09:23;;;;;;;1.98;1.70;;;5.00;99.90;;;;;;5089277;28;20293;-80
2022/11/12 05:11:54;;;;;;;2.50;1.45;;;5.00;99.90;;;;;;5090937;28;20209;-80
2022/11/12 05:14:21;;;;;;;1.85;1.52;;;5.10;99.90;;;;;;5090602;28;20569;-80
2022/11/12 05:16:48;;;;;;;3.45;2.35;;;5.00;99.90;;;;;;5096975;28;20280;-80
2022/11/12 05:19:15;;;;;;;4.75;1.45;;;5.20;99.90;;;;;;5111214;28;20297;-79
2022/11/12 05:24:28;;;;;;;2.00;1.85;;;5.00;99.90;;;;;;5110382;28;20225;-79
2022/11/12 05:26:55;;;;;;;2.17;2.08;;;5.00;99.90;;;;;;5110136;28;20220;-80
2022/11/12 05:29:21;;;;;;;2.85;2.20;;;5.00;99.90;;;;;;5110397;28;20232;-80
2022/11/12 05:31:49;;;;;;;2.40;1.95;;;4.90;99.90;;;;;;5110885;28;20197;-80
2022/11/12 05:34:15;;;;;;;1.60;1.50;;;4.90;99.90;;;;;;5109860;28;20285;-80
2022/11/12 05:36:42;;;;;;;1.90;1.80;;;4.80;99.90;;;;;;5109984;28;20275;-80
2022/11/12 05:39:09;;;;;;;2.03;1.30;;;4.80;99.90;;;;;;5110737;28;20281;-80
2022/11/12 05:41:37;;;;;;;2.08;1.73;;;4.80;99.90;;;;;;5110416;28;20205;-80
2022/11/12 05:44:04;;;;;;;1.65;1.55;;;4.70;99.90;;;;;;5110294;28;20313;-80
2022/11/12 05:46:31;;;;;;;2.10;1.50;;;4.80;99.90;;;;;;5109875;28;20202;-81
2022/11/12 05:48:58;;;;;;;1.15;1.05;;;4.80;99.90;;;;;;5110394;28;20208;-80
2022/11/12 05:51:24;;;;;;;1.70;1.60;;;4.70;99.90;;;;;;5110642;28;20208;-80
2022/11/12 05:53:51;;;;;;;6.72;2.58;;;4.70;99.90;;;;;;5110364;28;20675;-80
2022/11/12 05:56:18;;;;;;;1.70;1.45;;;4.70;99.90;;;;;;5109919;28;20642;-80
2022/11/12 05:58:46;;;;;;;6.95;1.95;;;4.70;99.90;;;;;;5107062;28;20281;-79
2022/11/12 06:01:13;;;;;;;1.52;1.15;;;4.70;99.90;;;;;;5089224;28;20195;-80
2022/11/12 06:03:40;;;;;;;2.50;1.23;;;4.70;99.90;;;;;;5089909;28;20267;-80
2022/11/12 06:06:07;;;;;;;0.75;0.75;;;4.80;99.90;;;;;;5089604;28;20202;-80
2022/11/12 06:08:34;;;;;;;2.85;1.50;;;4.70;99.90;;;;;;5088365;28;20210;-79
2022/11/12 06:11:01;;;;;;;0.90;0.82;;;4.70;99.90;;;;;;5089532;28;20195;-79
2022/11/12 06:13:28;;;;;;;0.70;0.70;;;4.70;99.90;;;;;;5088999;28;20582;-79
2022/11/12 06:15:57;;;;;;;1.40;1.35;;;4.70;99.90;;;;;;5088829;28;20293;-79
2022/11/12 06:18:24;;;;;;;5.53;2.45;;;4.60;99.90;;;;;;5089254;28;20289;-79
2022/11/12 06:23:32;;;;;;;1.98;0.70;;;4.60;99.90;;;;;;5088062;28;20240;-80
2022/11/12 06:25:59;;;;;;;1.75;1.65;;;4.70;99.90;;;;;;5088930;28;20210;-80
2022/11/12 06:28:25;;;;;;;2.40;2.20;;;4.70;99.90;;;;;;5094835;28;20198;-79
2022/11/12 06:30:52;;;;;;;1.83;1.42;;;4.50;99.90;;;;;;5109582;28;20234;-80
2022/11/12 06:33:20;;;;;;;3.50;1.75;;;4.50;99.90;;;;;;5109333;28;20194;-80
2022/11/12 06:35:47;;;;;;;2.40;2.20;;;4.30;99.90;;;;;;5109405;28;20679;-79
2022/11/12 06:38:14;;;;;;;2.60;1.42;;;4.30;99.90;;;;;;5109249;28;20233;-80
2022/11/12 06:40:42;;;;;;;3.38;1.80;;;4.30;99.90;;;;;;5109751;28;20206;-79
2022/11/12 06:43:09;;;;;;;1.45;1.38;;;4.40;99.90;;;;;;5109406;28;20202;-79
2022/11/12 06:45:37;;;;;;;1.33;0.82;;;4.30;99.90;;;;;;5109056;28;20202;-79
2022/11/12 06:48:04;;;;;;;1.63;1.17;;;4.30;99.90;;;;;;5108764;28;20198;-80
2022/11/12 06:50:32;;;;;;;1.70;1.20;;;4.30;99.90;;;;;;5109176;28;20221;-80
2022/11/12 06:52:59;;;;;;;1.30;1.20;;;4.30;99.90;;;;;;5109394;28;20198;-80
2022/11/12 06:55:26;;;;;;;3.17;2.88;;;4.30;99.90;;;;;;5108609;28;20216;-80
2022/11/12 06:57:53;;;;;;;2.33;1.95;;;4.20;99.90;;;;;;5107994;28;20209;-80
2022/11/12 07:00:20;;;;;;;1.23;1.17;;;4.10;99.90;;;;;;5092839;28;20205;-80
2022/11/12 07:02:47;;;;;;;1.75;1.63;;;4.10;99.90;;;;;;5088402;28;20218;-80
2022/11/12 07:05:14;;;;;;;1.55;1.45;;;4.20;99.90;;;;;;5088594;28;20226;-80
2022/11/12 07:07:42;;;;;;;1.60;1.50;;;4.30;99.90;;;;;;5088321;28;20606;-79
2022/11/12 07:10:09;;;;;;;2.30;2.10;;;4.40;99.90;;;;;;5087063;28;20281;-80
2022/11/12 07:12:36;;;;;;;1.10;1.00;;;4.40;99.90;;;;;;5088515;28;20248;-79
2022/11/12 07:15:03;;;;;;;2.58;2.45;;;4.50;99.90;;;;;;5088851;28;20202;-80
2022/11/12 07:17:30;;;;;;;2.67;2.47;;;4.50;99.90;;;;;;5100704;28;20284;-80
2022/11/12 07:19:57;;;;;;;3.00;1.70;;;4.50;99.90;;;;;;5109012;28;20562;-80
2022/11/12 07:22:24;;;;;;;1.90;1.10;;;5.00;99.90;;;;;;5108304;28;20201;-80
2022/11/12 07:24:52;;;;;;;3.22;2.97;;;4.80;99.90;;;;;;5107581;28;20233;-79
2022/11/12 07:27:19;;;;;;;1.33;1.23;;;4.90;99.90;;;;;;5107836;28;20209;-80
2022/11/12 07:29:46;;;;;;;1.40;1.27;;;5.00;99.90;;;;;;5108486;28;20289;-79
2022/11/12 07:32:13;;;;;;;1.83;1.60;;;5.00;99.90;;;;;;5108313;28;20202;-80
2022/11/12 07:34:40;;;;;;;2.10;1.92;;;5.10;99.90;;;;;;5108117;28;20202;-79
2022/11/12 07:37:07;;;;;;;1.33;1.15;;;5.20;99.90;;;;;;5107329;28;20471;-80
2022/11/12 07:39:34;;;;;;;1.80;1.27;;;5.20;99.90;;;;;;5108546;28;20211;-80
2022/11/12 07:42:02;;;;;;;1.02;1.02;;;5.30;99.90;;;;;;5108438;28;20202;-79
2022/11/12 07:44:29;;;;;;;1.35;1.08;;;5.30;99.90;;;;;;5108253;28;20222;-79
2022/11/12 07:46:55;;;;;;;1.60;1.50;;;5.40;99.90;;;;;;5107822;28;20202;-79
2022/11/12 07:49:22;;;;;;;1.15;0.82;;;5.40;99.90;;;;;;5108406;28;20301;-79
2022/11/12 07:51:49;;;;;;;1.75;1.38;;;5.40;99.90;;;;;;5108163;28;20652;-79
2022/11/12 07:54:16;;;;;;;1.00;1.00;;;5.50;99.90;;;;;;5108399;28;20276;-79
2022/11/12 07:56:43;;;;;;;1.85;1.73;;;5.60;99.90;;;;;;5107776;28;20210;-79
2022/11/12 07:59:11;;;;;;;2.90;2.13;;;5.70;99.90;;;;;;5101611;28;20188;-79
2022/11/12 08:01:39;;;;;;;1.85;1.75;;;5.80;99.90;;;;;;5088079;28;20286;-79
2022/11/12 08:04:09;;;;;;;1.05;1.00;;;5.90;99.90;;;;;;5087312;28;20308;-80
2022/11/12 08:06:36;;;;;;;2.25;1.65;;;5.90;99.90;;;;;;5087410;28;20194;-79
2022/11/12 08:09:05;;;;;;;1.65;1.17;;;6.00;99.90;;;;;;5086309;28;20584;-79
2022/11/12 08:11:32;;;;;;;4.32;2.63;;;6.00;99.90;;;;;;5087708;28;20713;-79
2022/11/12 08:13:59;;;;;;;1.80;1.70;;;6.00;99.90;;;;;;5087827;28;20202;-79
2022/11/12 08:16:27;;;;;;;2.00;1.48;;;6.10;99.90;;;;;;5091471;28;20289;-79
2022/11/12 08:18:54;;;;;;;3.20;2.20;;;6.10;99.90;;;;;;5106780;28;20696;-79
2022/11/12 08:21:21;;;;;;;4.43;2.25;;;6.10;99.90;;;;;;5108331;28;20628;-79
2022/11/12 08:23:48;;;;;;;2.65;2.13;;;6.20;99.90;;;;;;5107945;28;20201;-79
2022/11/12 08:26:17;;;;;;;3.75;1.75;;;6.20;99.90;;;;;;5107562;28;20286;-79
2022/11/12 08:28:44;;;;;;;3.10;2.55;;;6.20;99.90;;;;;;5107542;28;20200;-79
2022/11/12 08:31:13;;;;;;;1.63;1.52;;;6.40;99.90;;;;;;5107762;28;20285;-79
2022/11/12 08:33:42;;;;;;;1.85;1.75;;;6.20;99.90;;;;;;5107622;28;20215;-79
2022/11/12 08:36:12;;;;;;;2.10;1.92;;;6.30;99.90;;;;;;5108547;28;20194;-79
2022/11/12 08:38:39;;;;;;;2.75;2.55;;;6.40;99.90;;;;;;5111760;28;20201;-79
2022/11/12 08:41:08;;;;;;;1.85;1.55;;;6.50;99.90;;;;;;5111923;28;20466;-79
2022/11/12 08:43:35;;;;;;;2.13;1.85;;;6.60;99.90;;;;;;5111757;28;20197;-79
2022/11/12 08:46:02;;;;;;;2.65;2.15;;;6.70;99.90;;;;;;5111007;28;20247;-79
2022/11/12 08:48:30;;;;;;;2.10;1.90;;;6.70;99.90;;;;;;5111227;28;20201;-79
2022/11/12 08:51:01;;;;;;;2.42;2.22;;;6.70;99.90;;;;;;5111607;28;20205;-79
2022/11/12 08:53:28;;;;;;;4.80;2.20;;;6.80;99.90;;;;;;5111726;28;20200;-79
2022/11/12 08:55:55;;;;;;;4.55;2.75;;;6.90;99.90;;;;;;5111381;28;20518;-80
2022/11/12 08:58:22;;;;;;;8.23;3.47;;;6.90;99.90;;;;;;5110459;28;20198;-80
2022/11/12 09:00:49;;;;;;;2.70;2.23;;;7.00;99.90;;;;;;5090989;28;20721;-79
2022/11/12 09:03:19;;;;;;;3.45;2.67;;;7.00;99.90;;;;;;5090876;28;20631;-79
2022/11/12 09:05:46;;;;;;;2.33;1.80;;;7.10;99.90;;;;;;5091000;28;20234;-79
2022/11/12 09:08:17;;;;;;;3.17;1.33;;;7.30;99.90;;;;;;5089103;28;21092;-80
2022/11/12 09:10:45;;;;;;;2.33;2.13;;;7.40;99.90;;;;;;5090603;28;20719;-80
2022/11/12 09:13:12;;;;;;;1.97;1.80;;;7.40;99.90;;;;;;5090607;28;20648;-80
2022/11/12 09:15:39;;;;;;;4.00;2.77;;;7.60;99.90;;;;;;5090866;28;20616;-79
2022/11/12 09:18:10;;;;;;;2.83;2.60;;;7.60;99.90;;;;;;5107953;28;21210;-80
2022/11/12 09:20:37;;;;;;;2.40;2.20;;;7.70;99.90;;;;;;5110790;28;20611;-79
2022/11/12 09:23:06;;;;;;;1.50;1.40;;;7.80;99.90;;;;;;5111237;28;20623;-80
2022/11/12 09:25:35;;;;;;;3.03;1.57;;;7.90;99.90;;;;;;5110189;28;20747;-80
2022/11/12 09:28:07;;;;;;;2.63;2.13;;;8.00;99.90;;;;;;5110314;28;20742;-80
2022/11/12 09:30:33;;;;;;;2.43;2.03;;;8.10;99.90;;;;;;5110724;28;20619;-80
2022/11/12 09:33:00;;;;;;;2.50;2.27;;;8.10;99.90;;;;;;5110879;28;20630;-80
2022/11/12 09:35:27;;;;;;;2.60;2.03;;;8.20;99.90;;;;;;5110865;28;20619;-79
2022/11/12 09:37:54;;;;;;;2.70;2.50;;;8.30;99.90;;;;;;5109851;28;20973;-80
2022/11/12 09:40:21;;;;;;;5.43;2.60;;;8.30;99.90;;;;;;5111125;28;20626;-79
2022/11/12 09:42:52;;;;;;;2.73;2.03;;;8.30;99.90;;;;;;5110591;28;20718;-80
2022/11/12 09:45:23;;;;;;;2.60;2.27;;;8.40;99.90;;;;;;5110649;28;20658;-79
2022/11/12 09:47:56;;;;;;;1.30;1.20;;;8.40;99.90;;;;;;5109066;28;20627;-79
2022/11/12 09:50:27;;;;;;;3.27;1.50;;;8.40;99.90;;;;;;5110217;28;20943;-80
2022/11/12 09:53:01;;;;;;;3.27;2.20;;;8.50;99.90;;;;;;5110398;28;20737;-80
2022/11/12 09:55:32;;;;;;;3.97;2.70;;;8.50;99.90;;;;;;5110333;28;20708;-79
2022/11/12 09:58:00;;;;;;;4.13;2.60;;;8.60;99.90;;;;;;5109773;28;20981;-79
2022/11/12 10:00:28;;;;;;;2.30;2.00;;;8.60;99.90;;;;;;5092905;28;21261;-79
2022/11/12 10:03:00;;;;;;;4.37;2.07;;;8.60;99.90;;;;;;5089483;28;21178;-80
2022/11/12 10:05:33;;;;;;;3.57;2.20;;;8.70;99.90;;;;;;5089931;28;20660;-79
2022/11/12 10:08:20;;;;;;;3.23;2.23;;;8.70;99.90;;;;;;5088998;28;20625;-80
2022/11/12 10:10:49;;;;;;;3.47;2.40;;;8.70;99.90;;;;;;5089665;28;20636;-79
2022/11/12 10:13:33;;;;;;;4.80;3.80;;;8.80;99.90;;;;;;5089648;28;20621;-80
2022/11/12 10:19:21;;;;;;;4.20;3.27;;;8.80;99.90;;;;;;5109878;28;21049;-79
2022/11/12 10:21:56;;;;;;;3.00;2.80;;;8.90;99.90;;;;;;5109502;28;20619;-79
2022/11/12 10:24:24;;;;;;;4.50;3.27;;;8.90;99.90;;;;;;5110191;28;20607;-79
2022/11/12 10:26:52;;;;;;;3.77;3.27;;;8.90;99.90;;;;;;5109461;28;20630;-79
2022/11/12 10:29:31;;;;;;;4.10;3.70;;;8.90;99.90;;;;;;5109617;28;20819;-79
2022/11/12 10:32:01;;;;;;;4.50;2.87;;;9.00;99.90;;;;;;5109377;28;21246;-80
2022/11/12 10:34:30;;;;;;;4.00;3.23;;;9.10;99.90;;;;;;5108972;28;20631;-79
2022/11/12 10:37:00;;;;;;;3.83;2.97;;;9.20;99.90;;;;;;5109009;28;20979;-79
2022/11/12 10:39:35;;;;;;;3.57;3.23;;;9.10;99.90;;;;;;5109664;28;20754;-79
2022/11/12 10:42:05;;;;;;;2.70;2.50;;;9.20;99.90;;;;;;5109654;28;20617;-80
2022/11/12 10:44:34;;;;;;;3.97;3.57;;;9.20;99.90;;;;;;5109028;28;21038;-80
2022/11/12 10:47:21;;;;;;;3.50;2.53;;;9.20;99.90;;;;;;5108859;28;20619;-79
2022/11/12 10:50:04;;;;;;;3.13;2.83;;;9.30;99.90;;;;;;5109624;28;20672;-80
2022/11/12 10:52:31;;;;;;;4.40;2.70;;;9.40;99.90;;;;;;5109608;28;20611;-80
2022/11/12 10:55:05;;;;;;;3.07;2.43;;;9.40;99.90;;;;;;5108594;28;20624;-80
2022/11/12 10:57:32;;;;;;;2.83;2.63;;;9.40;99.90;;;;;;5108954;28;20703;-81
2022/11/12 11:00:20;;;;;;;1.73;1.60;;;9.50;99.90;;;;;;5095739;28;20618;-80
2022/11/12 11:02:49;;;;;;;2.07;1.97;;;9.50;99.90;;;;;;5088808;28;20620;-80
2022/11/12 11:05:35;;;;;;;2.53;2.33;;;9.50;99.90;;;;;;5088483;28;20713;-80
2022/11/12 11:08:02;;;;;;;3.13;2.40;;;9.60;99.90;;;;;;5088223;28;20608;-80
2022/11/12 11:10:31;;;;;;;2.97;2.67;;;9.60;99.90;;;;;;5087390;28;20612;-80
2022/11/12 11:13:19;;;;;;;3.60;2.90;;;9.70;99.90;;;;;;5089165;28;20713;-80
2022/11/12 11:16:00;;;;;;;3.20;2.07;;;9.70;99.90;;;;;;5087952;28;21182;-80
2022/11/12 11:18:28;;;;;;;2.07;1.97;;;9.80;99.90;;;;;;5088199;28;20625;-79
2022/11/12 11:21:08;;;;;;;1.93;1.83;;;9.90;99.90;;;;;;5088272;28;20646;-80
2022/11/12 11:23:42;;;;;;;2.80;2.60;;;9.80;99.90;;;;;;5088394;28;20630;-81
2022/11/12 11:26:28;;;;;;;3.07;2.77;;;9.90;99.90;;;;;;5087895;28;20668;-80
2022/11/12 11:29:06;;;;;;;2.80;2.60;;;10.00;99.90;;;;;;5099339;28;20634;-80
2022/11/12 11:31:43;;;;;;;1.70;1.50;;;10.00;99.90;;;;;;5108553;28;20627;-80
2022/11/12 11:34:22;;;;;;;2.43;2.23;;;10.00;99.90;;;;;;5108679;28;20625;-79
2022/11/12 11:36:57;;;;;;;1.97;1.83;;;10.00;99.90;;;;;;5107340;28;20655;-80
2022/11/12 11:39:33;;;;;;;2.70;2.50;;;10.10;99.90;;;;;;5108456;28;20985;-80
2022/11/12 11:42:13;;;;;;;3.17;2.87;;;10.20;99.90;;;;;;5108818;28;20629;-80
2022/11/12 11:44:49;;;;;;;2.10;1.50;;;10.20;99.90;;;;;;5108055;28;20687;-80
2022/11/12 11:47:27;;;;;;;1.80;1.70;;;10.30;99.90;;;;;;5107295;28;20718;-80
2022/11/12 11:50:21;;;;;;;2.50;2.10;;;10.30;99.90;;;;;;5108672;28;20722;-80
2022/11/12 11:53:01;;;;;;;3.33;3.10;;;10.40;99.90;;;;;;5094540;28;21072;-80
2022/11/12 11:55:51;;;;;;;2.40;2.17;;;10.40;99.90;;;;;;5107761;28;21227;-80
2022/11/12 11:58:54;;;;;;;2.80;2.23;;;10.30;99.90;;;;;;5108354;28;20715;-79
2022/11/12 12:01:28;;;;;;;1.53;1.23;;;10.40;99.90;;;;;;5087730;28;20634;-79
2022/11/12 12:04:20;;;;;;;2.50;2.30;;;10.50;99.90;;;;;;5087419;28;20719;-80
2022/11/12 12:06:57;;;;;;;1.80;1.57;;;10.50;99.90;;;;;;5087275;28;20660;-80
2022/11/12 12:09:35;;;;;;;2.63;2.30;;;10.50;99.90;;;;;;5086599;28;20813;-80
2022/11/12 12:12:13;;;;;;;2.57;2.30;;;10.50;99.90;;;;;;5089296;28;20613;-80
2022/11/12 12:14:52;;;;;;;3.00;2.80;;;10.50;99.90;;;;;;5092257;28;20723;-80
2022/11/12 12:17:37;;;;;;;2.97;2.60;;;10.60;99.90;;;;;;5102659;28;21212;-80
2022/11/12 12:20:19;;;;;;;2.60;2.40;;;10.70;99.90;;;;;;5112404;28;20607;-80
2022/11/12 12:22:50;;;;;;;3.30;2.50;;;10.70;99.90;;;;;;5111650;28;20608;-80
2022/11/12 12:25:22;;;;;;;2.80;2.60;;;10.70;99.90;;;;;;5112091;28;20754;-80
2022/11/12 12:27:57;;;;;;;3.17;2.27;;;10.70;99.90;;;;;;5111431;28;20624;-80
2022/11/12 12:30:25;;;;;;;3.27;2.90;;;10.80;99.90;;;;;;5112000;28;21207;-79
2022/11/12 12:32:59;;;;;;;3.40;3.10;;;10.80;99.90;;;;;;5111584;28;20631;-80
2022/11/12 12:35:31;;;;;;;2.27;2.00;;;10.80;99.90;;;;;;5112222;28;20677;-80
2022/11/12 12:38:06;;;;;;;2.50;2.30;;;10.80;99.90;;;;;;5111204;28;20616;-80
2022/11/12 12:40:39;;;;;;;2.40;2.20;;;10.90;99.90;;;;;;5111757;28;20967;-80
2022/11/12 12:43:12;;;;;;;2.40;2.20;;;10.90;99.90;;;;;;5111631;28;20627;-80
2022/11/12 12:45:41;;;;;;;3.07;2.03;;;10.90;99.90;;;;;;5111116;28;20650;-80
2022/11/12 12:48:15;;;;;;;2.40;2.20;;;10.90;99.90;;;;;;5111045;28;20620;-79
2022/11/12 12:50:44;;;;;;;2.80;2.00;;;10.90;99.90;;;;;;5111469;28;20634;-80
2022/11/12 12:53:31;;;;;;;2.70;2.50;;;11.00;99.90;;;;;;5111360;28;20706;-80
2022/11/12 12:55:59;;;;;;;2.37;2.17;;;11.00;99.90;;;;;;5111344;28;20614;-79
2022/11/12 12:58:28;;;;;;;2.47;2.27;;;11.00;99.90;;;;;;5110874;28;21396;-80
2022/11/12 13:00:59;;;;;;;3.40;3.10;;;11.00;99.90;;;;;;5111428;28;20618;-79
2022/11/12 13:04:01;;;;;;;3.17;2.87;;;11.10;99.90;;;;;;5111195;28;20612;-79
2022/11/12 13:06:32;;;;;;;2.13;2.00;;;11.10;99.90;;;;;;5047113;28;20709;-79
2022/11/12 13:09:02;;;;;;;3.37;2.60;;;11.10;99.90;;;;;;5046525;28;21240;-79
2022/11/12 13:14:51;;;;;;;5.10;2.13;;;11.20;99.90;;;;;;5111097;28;20630;-79
2022/11/12 13:17:46;;;;;;;2.60;2.40;;;11.20;99.90;;;;;;5110295;28;20726;-79
2022/11/12 13:20:35;;;;;;;3.73;3.03;;;11.20;99.90;;;;;;5110759;28;20954;-78
2022/11/12 13:23:09;;;;;;;2.30;2.20;;;11.20;99.90;;;;;;5109190;28;21252;-78
2022/11/12 13:25:36;;;;;;;3.20;3.00;;;11.20;99.90;;;;;;5110713;28;20675;-78
2022/11/12 13:28:09;;;;;;;2.43;2.20;;;11.30;99.90;;;;;;5109951;28;20658;-78
2022/11/12 13:31:01;;;;;;;2.57;2.37;;;11.30;99.90;;;;;;5110856;28;20618;-79
2022/11/12 13:33:33;;;;;;;5.10;3.50;;;11.30;99.90;;;;;;5109967;28;20616;-79
2022/11/12 13:36:33;;;;;;;2.67;2.40;;;11.30;99.90;;;;;;5111142;28;20619;-78
2022/11/12 13:39:14;;;;;;;4.20;2.80;;;11.30;99.90;;;;;;5047403;28;21259;-79
2022/11/12 13:44:27;;;;;;;4.47;2.60;;;11.30;99.90;;;;;;5088821;28;20728;-78
2022/11/12 13:46:54;;;;;;;2.33;2.00;;;11.30;99.90;;;;;;5110107;28;20671;-79
2022/11/12 13:49:22;;;;;;;3.33;2.97;;;11.30;99.90;;;;;;5110355;28;20611;-78